sensor_id;sensor_type;location;lat;lon;timestamp;P1;durP1;ratioP1;P2;durP2;ratioP2
15952;SDS011;8075;47.766;8.846;2023-03-22T00:00:09;4.47;;;4.18;;
15952;SDS011;8075;47.766;8.846;2023-03-22T00:02:40;4.10;;;3.70;;
15952;SDS011;8075;47.766;8.846;2023-03-22T00:05:07;4.40;;;4.00;;
15952;SDS011;8075;47.766;8.846;2023-03-22T00:07:33;4.35;;;3.85;;
15952;SDS011;8075;47.766;8.846;2023-03-22T00:10:01;4.72;;;4.32;;
15952;SDS011;8075;47.766;8.846;2023-03-22T00:12:27;5.60;;;3.78;;
15952;SDS011;8075;47.766;8.846;2023-03-22T00:14:53;4.47;;;4.07;;
15952;SDS011;8075;47.766;8.846;2023-03-22T00:17:19;4.22;;;3.80;;
15952;SDS011;8075;47.766;8.846;2023-03-22T00:19:46;4.50;;;3.63;;
15952;SDS011;8075;47.766;8.846;2023-03-22T00:22:13;4.07;;;3.67;;
15952;SDS011;8075;47.766;8.846;2023-03-22T00:24:40;4.15;;;3.60;;
15952;SDS011;8075;47.766;8.846;2023-03-22T00:27:06;3.87;;;3.43;;
15952;SDS011;8075;47.766;8.846;2023-03-22T00:29:32;3.90;;;3.30;;
15952;SDS011;8075;47.766;8.846;2023-03-22T00:31:58;3.78;;;3.40;;
15952;SDS011;8075;47.766;8.846;2023-03-22T00:34:24;3.53;;;3.23;;
15952;SDS011;8075;47.766;8.846;2023-03-22T00:36:51;5.05;;;4.10;;
15952;SDS011;8075;47.766;8.846;2023-03-22T00:39:17;4.07;;;3.75;;
15952;SDS011;8075;47.766;8.846;2023-03-22T00:41:43;4.03;;;3.63;;
15952;SDS011;8075;47.766;8.846;2023-03-22T00:44:09;4.60;;;4.00;;
15952;SDS011;8075;47.766;8.846;2023-03-22T00:46:35;4.10;;;3.70;;
15952;SDS011;8075;47.766;8.846;2023-03-22T00:49:01;4.20;;;3.60;;
15952;SDS011;8075;47.766;8.846;2023-03-22T00:51:27;4.00;;;3.60;;
15952;SDS011;8075;47.766;8.846;2023-03-22T00:53:53;4.60;;;3.40;;
15952;SDS011;8075;47.766;8.846;2023-03-22T00:56:19;6.72;;;3.50;;
15952;SDS011;8075;47.766;8.846;2023-03-22T00:58:47;5.45;;;3.83;;
15952;SDS011;8075;47.766;8.846;2023-03-22T01:01:13;3.75;;;3.20;;
15952;SDS011;8075;47.766;8.846;2023-03-22T01:03:39;3.38;;;3.08;;
15952;SDS011;8075;47.766;8.846;2023-03-22T01:06:06;3.85;;;3.45;;
15952;SDS011;8075;47.766;8.846;2023-03-22T01:08:32;3.65;;;3.35;;
15952;SDS011;8075;47.766;8.846;2023-03-22T01:10:59;3.90;;;3.20;;
15952;SDS011;8075;47.766;8.846;2023-03-22T01:13:25;3.95;;;3.15;;
15952;SDS011;8075;47.766;8.846;2023-03-22T01:15:51;3.40;;;3.10;;
15952;SDS011;8075;47.766;8.846;2023-03-22T01:18:17;3.05;;;2.80;;
15952;SDS011;8075;47.766;8.846;2023-03-22T01:20:43;3.67;;;3.10;;
15952;SDS011;8075;47.766;8.846;2023-03-22T01:23:09;3.58;;;3.10;;
15952;SDS011;8075;47.766;8.846;2023-03-22T01:25:35;3.58;;;3.05;;
15952;SDS011;8075;47.766;8.846;2023-03-22T01:28:01;5.03;;;2.92;;
15952;SDS011;8075;47.766;8.846;2023-03-22T01:30:28;3.92;;;2.90;;
15952;SDS011;8075;47.766;8.846;2023-03-22T01:32:54;3.63;;;2.88;;
15952;SDS011;8075;47.766;8.846;2023-03-22T01:35:20;3.50;;;2.90;;
15952;SDS011;8075;47.766;8.846;2023-03-22T01:37:46;4.32;;;3.60;;
15952;SDS011;8075;47.766;8.846;2023-03-22T01:40:13;2.90;;;2.70;;
15952;SDS011;8075;47.766;8.846;2023-03-22T01:42:39;3.42;;;3.05;;
15952;SDS011;8075;47.766;8.846;2023-03-22T01:45:16;4.20;;;3.30;;
15952;SDS011;8075;47.766;8.846;2023-03-22T01:47:53;3.50;;;3.20;;
15952;SDS011;8075;47.766;8.846;2023-03-22T01:50:20;3.70;;;3.30;;
15952;SDS011;8075;47.766;8.846;2023-03-22T01:52:47;3.75;;;3.30;;
15952;SDS011;8075;47.766;8.846;2023-03-22T01:55:14;3.15;;;2.85;;
15952;SDS011;8075;47.766;8.846;2023-03-22T01:57:42;2.97;;;2.67;;
15952;SDS011;8075;47.766;8.846;2023-03-22T02:00:09;3.72;;;3.17;;
15952;SDS011;8075;47.766;8.846;2023-03-22T02:02:43;3.20;;;2.90;;
15952;SDS011;8075;47.766;8.846;2023-03-22T02:05:09;3.42;;;3.03;;
15952;SDS011;8075;47.766;8.846;2023-03-22T02:07:36;4.28;;;3.80;;
15952;SDS011;8075;47.766;8.846;2023-03-22T02:10:03;4.00;;;3.70;;
15952;SDS011;8075;47.766;8.846;2023-03-22T02:12:49;4.53;;;3.63;;
15952;SDS011;8075;47.766;8.846;2023-03-22T02:20:57;3.65;;;3.35;;
15952;SDS011;8075;47.766;8.846;2023-03-22T02:31:28;4.10;;;3.70;;
15952;SDS011;8075;47.766;8.846;2023-03-22T02:34:04;3.60;;;3.30;;
15952;SDS011;8075;47.766;8.846;2023-03-22T02:36:47;4.13;;;3.73;;
15952;SDS011;8075;47.766;8.846;2023-03-22T02:44:56;4.25;;;3.30;;
15952;SDS011;8075;47.766;8.846;2023-03-22T02:47:25;4.20;;;3.80;;
15952;SDS011;8075;47.766;8.846;2023-03-22T02:49:53;4.70;;;3.33;;
15952;SDS011;8075;47.766;8.846;2023-03-22T02:54:51;3.50;;;3.20;;
15952;SDS011;8075;47.766;8.846;2023-03-22T02:57:32;3.65;;;3.35;;
15952;SDS011;8075;47.766;8.846;2023-03-22T03:00:00;3.83;;;3.42;;
15952;SDS011;8075;47.766;8.846;2023-03-22T03:02:32;5.88;;;3.40;;
15952;SDS011;8075;47.766;8.846;2023-03-22T03:04:58;4.13;;;3.75;;
15952;SDS011;8075;47.766;8.846;2023-03-22T03:07:25;3.90;;;3.50;;
15952;SDS011;8075;47.766;8.846;2023-03-22T03:09:52;3.65;;;3.35;;
15952;SDS011;8075;47.766;8.846;2023-03-22T03:12:19;3.95;;;3.55;;
15952;SDS011;8075;47.766;8.846;2023-03-22T03:14:45;4.13;;;3.78;;
15952;SDS011;8075;47.766;8.846;2023-03-22T03:24:56;3.63;;;3.33;;
15952;SDS011;8075;47.766;8.846;2023-03-22T03:27:42;3.53;;;3.22;;
15952;SDS011;8075;47.766;8.846;2023-03-22T03:30:10;3.90;;;3.50;;
15952;SDS011;8075;47.766;8.846;2023-03-22T03:32:59;3.72;;;3.33;;
15952;SDS011;8075;47.766;8.846;2023-03-22T03:35:37;4.60;;;3.50;;
15952;SDS011;8075;47.766;8.846;2023-03-22T03:38:11;3.55;;;3.25;;
15952;SDS011;8075;47.766;8.846;2023-03-22T03:40:49;4.18;;;3.88;;
15952;SDS011;8075;47.766;8.846;2023-03-22T03:43:16;3.40;;;3.20;;
15952;SDS011;8075;47.766;8.846;2023-03-22T03:45:43;3.60;;;3.30;;
15952;SDS011;8075;47.766;8.846;2023-03-22T03:48:16;5.80;;;3.70;;
15952;SDS011;8075;47.766;8.846;2023-03-22T03:50:43;3.72;;;3.40;;
15952;SDS011;8075;47.766;8.846;2023-03-22T03:53:09;4.53;;;3.50;;
15952;SDS011;8075;47.766;8.846;2023-03-22T03:55:35;3.83;;;3.53;;
15952;SDS011;8075;47.766;8.846;2023-03-22T03:58:01;4.03;;;3.20;;
15952;SDS011;8075;47.766;8.846;2023-03-22T04:00:27;3.75;;;3.45;;
15952;SDS011;8075;47.766;8.846;2023-03-22T04:02:53;3.70;;;3.35;;
15952;SDS011;8075;47.766;8.846;2023-03-22T04:05:19;3.80;;;3.50;;
15952;SDS011;8075;47.766;8.846;2023-03-22T04:07:45;3.70;;;3.40;;
15952;SDS011;8075;47.766;8.846;2023-03-22T04:10:11;3.50;;;3.20;;
15952;SDS011;8075;47.766;8.846;2023-03-22T04:12:37;3.95;;;3.50;;
15952;SDS011;8075;47.766;8.846;2023-03-22T04:15:03;2.95;;;2.65;;
15952;SDS011;8075;47.766;8.846;2023-03-22T04:17:30;3.40;;;3.10;;
15952;SDS011;8075;47.766;8.846;2023-03-22T04:19:56;3.20;;;2.90;;
15952;SDS011;8075;47.766;8.846;2023-03-22T04:22:22;3.17;;;2.88;;
15952;SDS011;8075;47.766;8.846;2023-03-22T04:24:49;3.25;;;2.95;;
15952;SDS011;8075;47.766;8.846;2023-03-22T04:27:18;3.30;;;3.00;;
15952;SDS011;8075;47.766;8.846;2023-03-22T04:29:45;3.10;;;2.80;;
15952;SDS011;8075;47.766;8.846;2023-03-22T04:32:13;3.10;;;2.80;;
15952;SDS011;8075;47.766;8.846;2023-03-22T04:34:40;2.78;;;2.47;;
15952;SDS011;8075;47.766;8.846;2023-03-22T04:37:06;2.65;;;2.45;;
15952;SDS011;8075;47.766;8.846;2023-03-22T04:39:32;2.63;;;2.35;;
15952;SDS011;8075;47.766;8.846;2023-03-22T04:41:58;2.67;;;2.20;;
15952;SDS011;8075;47.766;8.846;2023-03-22T04:44:24;2.30;;;2.10;;
15952;SDS011;8075;47.766;8.846;2023-03-22T04:46:50;2.55;;;2.35;;
15952;SDS011;8075;47.766;8.846;2023-03-22T04:49:16;2.53;;;2.33;;
15952;SDS011;8075;47.766;8.846;2023-03-22T04:51:42;3.17;;;2.40;;
15952;SDS011;8075;47.766;8.846;2023-03-22T04:54:08;2.70;;;2.50;;
15952;SDS011;8075;47.766;8.846;2023-03-22T04:56:34;2.53;;;2.33;;
15952;SDS011;8075;47.766;8.846;2023-03-22T04:59:00;2.40;;;2.20;;
15952;SDS011;8075;47.766;8.846;2023-03-22T05:01:26;2.60;;;2.40;;
15952;SDS011;8075;47.766;8.846;2023-03-22T05:03:52;4.38;;;2.53;;
15952;SDS011;8075;47.766;8.846;2023-03-22T05:06:18;2.67;;;2.40;;
15952;SDS011;8075;47.766;8.846;2023-03-22T05:08:44;2.92;;;2.60;;
15952;SDS011;8075;47.766;8.846;2023-03-22T05:11:14;2.63;;;2.42;;
15952;SDS011;8075;47.766;8.846;2023-03-22T05:13:41;4.60;;;2.70;;
15952;SDS011;8075;47.766;8.846;2023-03-22T05:16:07;2.50;;;2.30;;
15952;SDS011;8075;47.766;8.846;2023-03-22T05:18:34;3.20;;;2.30;;
15952;SDS011;8075;47.766;8.846;2023-03-22T05:21:02;2.50;;;2.30;;
15952;SDS011;8075;47.766;8.846;2023-03-22T05:23:28;2.83;;;2.45;;
15952;SDS011;8075;47.766;8.846;2023-03-22T05:25:54;2.70;;;2.50;;
15952;SDS011;8075;47.766;8.846;2023-03-22T05:28:22;2.92;;;2.67;;
15952;SDS011;8075;47.766;8.846;2023-03-22T05:30:48;2.75;;;2.55;;
15952;SDS011;8075;47.766;8.846;2023-03-22T05:33:16;2.95;;;2.60;;
15952;SDS011;8075;47.766;8.846;2023-03-22T05:35:46;2.73;;;2.53;;
15952;SDS011;8075;47.766;8.846;2023-03-22T05:38:12;3.30;;;3.00;;
15952;SDS011;8075;47.766;8.846;2023-03-22T05:40:38;2.83;;;2.60;;
15952;SDS011;8075;47.766;8.846;2023-03-22T05:43:04;3.00;;;2.80;;
15952;SDS011;8075;47.766;8.846;2023-03-22T05:45:30;2.95;;;2.75;;
15952;SDS011;8075;47.766;8.846;2023-03-22T05:47:56;2.88;;;2.63;;
15952;SDS011;8075;47.766;8.846;2023-03-22T05:50:22;3.20;;;2.90;;
15952;SDS011;8075;47.766;8.846;2023-03-22T05:52:49;3.00;;;2.70;;
15952;SDS011;8075;47.766;8.846;2023-03-22T05:55:16;2.93;;;2.63;;
15952;SDS011;8075;47.766;8.846;2023-03-22T05:57:42;3.20;;;2.47;;
15952;SDS011;8075;47.766;8.846;2023-03-22T06:00:11;4.10;;;2.63;;
15952;SDS011;8075;47.766;8.846;2023-03-22T06:02:42;3.13;;;2.60;;
15952;SDS011;8075;47.766;8.846;2023-03-22T06:05:08;2.75;;;2.47;;
15952;SDS011;8075;47.766;8.846;2023-03-22T06:07:38;3.05;;;2.85;;
15952;SDS011;8075;47.766;8.846;2023-03-22T06:10:04;3.10;;;2.90;;
15952;SDS011;8075;47.766;8.846;2023-03-22T06:12:31;2.60;;;2.40;;
15952;SDS011;8075;47.766;8.846;2023-03-22T06:14:57;4.03;;;2.88;;
15952;SDS011;8075;47.766;8.846;2023-03-22T06:17:23;3.30;;;3.00;;
15952;SDS011;8075;47.766;8.846;2023-03-22T06:19:50;3.70;;;2.78;;
15952;SDS011;8075;47.766;8.846;2023-03-22T06:22:16;3.00;;;2.53;;
15952;SDS011;8075;47.766;8.846;2023-03-22T06:24:42;3.05;;;2.75;;
15952;SDS011;8075;47.766;8.846;2023-03-22T06:27:08;2.50;;;2.30;;
15952;SDS011;8075;47.766;8.846;2023-03-22T06:29:35;3.30;;;2.40;;
15952;SDS011;8075;47.766;8.846;2023-03-22T06:32:01;3.00;;;2.70;;
15952;SDS011;8075;47.766;8.846;2023-03-22T06:34:27;4.17;;;3.77;;
15952;SDS011;8075;47.766;8.846;2023-03-22T06:36:54;5.07;;;3.30;;
15952;SDS011;8075;47.766;8.846;2023-03-22T06:39:20;4.57;;;4.05;;
15952;SDS011;8075;47.766;8.846;2023-03-22T06:41:46;4.37;;;3.70;;
15952;SDS011;8075;47.766;8.846;2023-03-22T06:44:12;4.95;;;3.53;;
15952;SDS011;8075;47.766;8.846;2023-03-22T06:46:38;3.10;;;2.90;;
15952;SDS011;8075;47.766;8.846;2023-03-22T06:49:04;3.50;;;3.20;;
15952;SDS011;8075;47.766;8.846;2023-03-22T06:51:32;3.60;;;3.20;;
15952;SDS011;8075;47.766;8.846;2023-03-22T06:53:58;5.95;;;3.45;;
15952;SDS011;8075;47.766;8.846;2023-03-22T06:56:24;4.10;;;3.70;;
15952;SDS011;8075;47.766;8.846;2023-03-22T06:58:50;3.77;;;3.47;;
15952;SDS011;8075;47.766;8.846;2023-03-22T07:01:18;3.90;;;3.60;;
15952;SDS011;8075;47.766;8.846;2023-03-22T07:03:44;4.68;;;4.10;;
15952;SDS011;8075;47.766;8.846;2023-03-22T07:06:10;4.78;;;4.38;;
15952;SDS011;8075;47.766;8.846;2023-03-22T07:08:39;4.70;;;4.40;;
15952;SDS011;8075;47.766;8.846;2023-03-22T07:11:05;4.68;;;3.90;;
15952;SDS011;8075;47.766;8.846;2023-03-22T07:13:31;4.73;;;4.33;;
15952;SDS011;8075;47.766;8.846;2023-03-22T07:15:58;5.15;;;4.22;;
15952;SDS011;8075;47.766;8.846;2023-03-22T07:18:25;4.80;;;4.40;;
15952;SDS011;8075;47.766;8.846;2023-03-22T07:20:51;4.45;;;4.15;;
15952;SDS011;8075;47.766;8.846;2023-03-22T07:23:17;4.90;;;4.50;;
15952;SDS011;8075;47.766;8.846;2023-03-22T07:25:44;4.85;;;4.45;;
15952;SDS011;8075;47.766;8.846;2023-03-22T07:28:10;4.13;;;3.83;;
15952;SDS011;8075;47.766;8.846;2023-03-22T07:30:36;6.47;;;5.93;;
15952;SDS011;8075;47.766;8.846;2023-03-22T07:33:03;4.60;;;4.20;;
15952;SDS011;8075;47.766;8.846;2023-03-22T07:35:29;4.30;;;3.90;;
15952;SDS011;8075;47.766;8.846;2023-03-22T07:37:55;4.55;;;4.15;;
15952;SDS011;8075;47.766;8.846;2023-03-22T07:40:21;5.13;;;4.72;;
15952;SDS011;8075;47.766;8.846;2023-03-22T07:42:48;5.65;;;5.15;;
15952;SDS011;8075;47.766;8.846;2023-03-22T07:45:14;5.40;;;4.90;;
15952;SDS011;8075;47.766;8.846;2023-03-22T07:47:40;6.13;;;5.00;;
15952;SDS011;8075;47.766;8.846;2023-03-22T07:50:07;5.45;;;4.95;;
15952;SDS011;8075;47.766;8.846;2023-03-22T07:52:35;5.55;;;5.05;;
15952;SDS011;8075;47.766;8.846;2023-03-22T07:55:01;7.03;;;5.18;;
15952;SDS011;8075;47.766;8.846;2023-03-22T07:57:27;5.97;;;5.40;;
15952;SDS011;8075;47.766;8.846;2023-03-22T07:59:53;5.75;;;5.25;;
15952;SDS011;8075;47.766;8.846;2023-03-22T08:02:21;5.15;;;4.65;;
15952;SDS011;8075;47.766;8.846;2023-03-22T08:04:47;7.07;;;5.20;;
15952;SDS011;8075;47.766;8.846;2023-03-22T08:07:14;6.65;;;5.30;;
15952;SDS011;8075;47.766;8.846;2023-03-22T08:09:42;8.35;;;5.80;;
15952;SDS011;8075;47.766;8.846;2023-03-22T08:12:08;5.18;;;4.65;;
15952;SDS011;8075;47.766;8.846;2023-03-22T08:14:35;6.25;;;4.30;;
15952;SDS011;8075;47.766;8.846;2023-03-22T08:17:01;4.35;;;3.80;;
15952;SDS011;8075;47.766;8.846;2023-03-22T08:19:27;5.43;;;3.42;;
15952;SDS011;8075;47.766;8.846;2023-03-22T08:21:54;3.97;;;3.20;;
15952;SDS011;8075;47.766;8.846;2023-03-22T08:24:20;4.38;;;3.33;;
15952;SDS011;8075;47.766;8.846;2023-03-22T08:26:46;3.88;;;3.20;;
15952;SDS011;8075;47.766;8.846;2023-03-22T08:29:13;4.97;;;3.53;;
15952;SDS011;8075;47.766;8.846;2023-03-22T08:31:40;5.15;;;3.47;;
15952;SDS011;8075;47.766;8.846;2023-03-22T08:34:06;5.55;;;3.72;;
15952;SDS011;8075;47.766;8.846;2023-03-22T08:36:32;6.00;;;3.58;;
15952;SDS011;8075;47.766;8.846;2023-03-22T08:38:58;4.70;;;4.20;;
15952;SDS011;8075;47.766;8.846;2023-03-22T08:41:25;4.28;;;3.58;;
15952;SDS011;8075;47.766;8.846;2023-03-22T08:43:51;4.45;;;3.88;;
15952;SDS011;8075;47.766;8.846;2023-03-22T08:46:17;8.00;;;3.80;;
15952;SDS011;8075;47.766;8.846;2023-03-22T08:48:43;4.40;;;3.63;;
15952;SDS011;8075;47.766;8.846;2023-03-22T08:51:17;5.75;;;3.83;;
15952;SDS011;8075;47.766;8.846;2023-03-22T08:53:44;4.07;;;3.65;;
15952;SDS011;8075;47.766;8.846;2023-03-22T08:56:11;3.90;;;3.60;;
15952;SDS011;8075;47.766;8.846;2023-03-22T08:58:40;4.70;;;4.30;;
15952;SDS011;8075;47.766;8.846;2023-03-22T09:01:12;5.13;;;3.92;;
15952;SDS011;8075;47.766;8.846;2023-03-22T09:03:39;4.20;;;3.80;;
15952;SDS011;8075;47.766;8.846;2023-03-22T09:06:05;3.90;;;3.60;;
15952;SDS011;8075;47.766;8.846;2023-03-22T09:08:34;4.18;;;3.78;;
15952;SDS011;8075;47.766;8.846;2023-03-22T09:11:00;4.53;;;4.13;;
15952;SDS011;8075;47.766;8.846;2023-03-22T09:13:26;4.35;;;3.95;;
15952;SDS011;8075;47.766;8.846;2023-03-22T09:15:54;4.65;;;4.03;;
15952;SDS011;8075;47.766;8.846;2023-03-22T09:18:20;4.50;;;3.80;;
15952;SDS011;8075;47.766;8.846;2023-03-22T09:20:48;4.78;;;4.13;;
15952;SDS011;8075;47.766;8.846;2023-03-22T09:23:14;4.93;;;4.53;;
15952;SDS011;8075;47.766;8.846;2023-03-22T09:25:43;4.70;;;4.25;;
15952;SDS011;8075;47.766;8.846;2023-03-22T09:28:10;4.10;;;3.70;;
15952;SDS011;8075;47.766;8.846;2023-03-22T09:30:36;4.15;;;3.75;;
15952;SDS011;8075;47.766;8.846;2023-03-22T09:33:02;4.80;;;4.03;;
15952;SDS011;8075;47.766;8.846;2023-03-22T09:35:28;4.40;;;4.00;;
15952;SDS011;8075;47.766;8.846;2023-03-22T09:37:54;4.40;;;3.88;;
15952;SDS011;8075;47.766;8.846;2023-03-22T09:40:24;4.30;;;3.80;;
15952;SDS011;8075;47.766;8.846;2023-03-22T09:42:51;4.33;;;3.83;;
15952;SDS011;8075;47.766;8.846;2023-03-22T09:45:29;4.40;;;4.00;;
15952;SDS011;8075;47.766;8.846;2023-03-22T09:48:01;4.40;;;3.50;;
15952;SDS011;8075;47.766;8.846;2023-03-22T09:50:28;3.50;;;3.10;;
15952;SDS011;8075;47.766;8.846;2023-03-22T09:52:55;4.30;;;3.70;;
15952;SDS011;8075;47.766;8.846;2023-03-22T09:55:42;3.22;;;3.00;;
15952;SDS011;8075;47.766;8.846;2023-03-22T09:58:20;3.70;;;2.70;;
15952;SDS011;8075;47.766;8.846;2023-03-22T10:00:59;2.85;;;2.45;;
15952;SDS011;8075;47.766;8.846;2023-03-22T10:06:21;2.97;;;2.70;;
15952;SDS011;8075;47.766;8.846;2023-03-22T10:14:06;5.72;;;3.00;;
15952;SDS011;8075;47.766;8.846;2023-03-22T10:16:35;3.25;;;3.00;;
15952;SDS011;8075;47.766;8.846;2023-03-22T10:19:03;3.20;;;2.90;;
15952;SDS011;8075;47.766;8.846;2023-03-22T10:21:30;4.32;;;3.85;;
15952;SDS011;8075;47.766;8.846;2023-03-22T10:23:57;4.53;;;3.95;;
15952;SDS011;8075;47.766;8.846;2023-03-22T10:26:26;4.72;;;3.80;;
15952;SDS011;8075;47.766;8.846;2023-03-22T10:29:03;5.18;;;3.80;;
15952;SDS011;8075;47.766;8.846;2023-03-22T10:31:30;3.70;;;3.25;;
15952;SDS011;8075;47.766;8.846;2023-03-22T10:33:57;2.88;;;2.50;;
15952;SDS011;8075;47.766;8.846;2023-03-22T10:36:25;2.72;;;2.28;;
15952;SDS011;8075;47.766;8.846;2023-03-22T10:38:53;2.70;;;2.00;;
15952;SDS011;8075;47.766;8.846;2023-03-22T10:41:22;2.60;;;2.00;;
15952;SDS011;8075;47.766;8.846;2023-03-22T10:43:51;2.60;;;2.40;;
15952;SDS011;8075;47.766;8.846;2023-03-22T10:46:18;2.57;;;2.37;;
15952;SDS011;8075;47.766;8.846;2023-03-22T10:48:46;2.45;;;2.25;;
15952;SDS011;8075;47.766;8.846;2023-03-22T10:51:38;5.45;;;2.20;;
15952;SDS011;8075;47.766;8.846;2023-03-22T10:54:00;3.20;;;2.17;;
15952;SDS011;8075;47.766;8.846;2023-03-22T10:56:27;3.83;;;2.55;;
15952;SDS011;8075;47.766;8.846;2023-03-22T10:58:53;2.20;;;2.00;;
15952;SDS011;8075;47.766;8.846;2023-03-22T11:01:27;4.18;;;2.30;;
15952;SDS011;8075;47.766;8.846;2023-03-22T11:03:55;3.13;;;2.35;;
15952;SDS011;8075;47.766;8.846;2023-03-22T11:06:22;3.00;;;2.43;;
15952;SDS011;8075;47.766;8.846;2023-03-22T11:08:50;2.95;;;2.25;;
15952;SDS011;8075;47.766;8.846;2023-03-22T11:11:21;2.90;;;2.28;;
15952;SDS011;8075;47.766;8.846;2023-03-22T11:13:55;2.00;;;1.88;;
15952;SDS011;8075;47.766;8.846;2023-03-22T11:16:23;2.38;;;1.88;;
15952;SDS011;8075;47.766;8.846;2023-03-22T11:18:50;3.25;;;2.28;;
15952;SDS011;8075;47.766;8.846;2023-03-22T11:21:16;2.03;;;1.63;;
15952;SDS011;8075;47.766;8.846;2023-03-22T11:23:51;2.63;;;2.00;;
15952;SDS011;8075;47.766;8.846;2023-03-22T11:26:23;2.60;;;1.70;;
15952;SDS011;8075;47.766;8.846;2023-03-22T11:28:50;1.42;;;1.30;;
15952;SDS011;8075;47.766;8.846;2023-03-22T11:31:17;1.40;;;1.30;;
15952;SDS011;8075;47.766;8.846;2023-03-22T11:33:54;1.58;;;1.15;;
15952;SDS011;8075;47.766;8.846;2023-03-22T11:36:21;2.33;;;1.10;;
15952;SDS011;8075;47.766;8.846;2023-03-22T11:38:47;1.88;;;1.30;;
15952;SDS011;8075;47.766;8.846;2023-03-22T11:41:20;2.35;;;1.23;;
15952;SDS011;8075;47.766;8.846;2023-03-22T11:43:47;2.63;;;1.10;;
15952;SDS011;8075;47.766;8.846;2023-03-22T11:46:16;2.00;;;0.95;;
15952;SDS011;8075;47.766;8.846;2023-03-22T11:48:43;1.20;;;1.10;;
15952;SDS011;8075;47.766;8.846;2023-03-22T11:51:32;1.20;;;0.90;;
15952;SDS011;8075;47.766;8.846;2023-03-22T11:54:03;1.30;;;1.00;;
15952;SDS011;8075;47.766;8.846;2023-03-22T11:56:30;2.45;;;1.00;;
15952;SDS011;8075;47.766;8.846;2023-03-22T11:59:06;1.80;;;1.00;;
15952;SDS011;8075;47.766;8.846;2023-03-22T12:01:34;1.83;;;1.00;;
15952;SDS011;8075;47.766;8.846;2023-03-22T12:04:02;2.42;;;1.05;;
15952;SDS011;8075;47.766;8.846;2023-03-22T12:06:31;1.70;;;0.98;;
15952;SDS011;8075;47.766;8.846;2023-03-22T12:08:59;1.92;;;0.80;;
15952;SDS011;8075;47.766;8.846;2023-03-22T12:14:02;1.80;;;0.90;;
15952;SDS011;8075;47.766;8.846;2023-03-22T12:16:51;1.88;;;0.70;;
15952;SDS011;8075;47.766;8.846;2023-03-22T12:19:29;0.77;;;0.65;;
15952;SDS011;8075;47.766;8.846;2023-03-22T12:22:01;1.10;;;0.80;;
15952;SDS011;8075;47.766;8.846;2023-03-22T12:24:28;1.38;;;0.73;;
15952;SDS011;8075;47.766;8.846;2023-03-22T12:26:59;0.82;;;0.60;;
15952;SDS011;8075;47.766;8.846;2023-03-22T12:29:26;2.22;;;0.90;;
15952;SDS011;8075;47.766;8.846;2023-03-22T12:34:23;2.10;;;0.70;;
15952;SDS011;8075;47.766;8.846;2023-03-22T12:36:52;1.37;;;0.57;;
15952;SDS011;8075;47.766;8.846;2023-03-22T12:41:49;4.00;;;1.20;;
15952;SDS011;8075;47.766;8.846;2023-03-22T12:44:16;1.23;;;0.80;;
15952;SDS011;8075;47.766;8.846;2023-03-22T12:51:38;1.85;;;0.80;;
15952;SDS011;8075;47.766;8.846;2023-03-22T12:54:05;1.00;;;0.60;;
15952;SDS011;8075;47.766;8.846;2023-03-22T12:56:35;1.33;;;0.63;;
15952;SDS011;8075;47.766;8.846;2023-03-22T12:59:03;1.00;;;0.60;;
15952;SDS011;8075;47.766;8.846;2023-03-22T13:01:32;1.10;;;0.95;;
15952;SDS011;8075;47.766;8.846;2023-03-22T13:04:01;1.08;;;0.70;;
15952;SDS011;8075;47.766;8.846;2023-03-22T13:11:47;0.73;;;0.65;;
15952;SDS011;8075;47.766;8.846;2023-03-22T13:16:59;0.63;;;0.50;;
15952;SDS011;8075;47.766;8.846;2023-03-22T13:19:31;1.30;;;0.60;;
15952;SDS011;8075;47.766;8.846;2023-03-22T13:22:14;0.77;;;0.60;;
15952;SDS011;8075;47.766;8.846;2023-03-22T13:27:34;1.70;;;0.70;;
15952;SDS011;8075;47.766;8.846;2023-03-22T13:30:02;2.17;;;0.70;;
15952;SDS011;8075;47.766;8.846;2023-03-22T13:32:30;0.90;;;0.70;;
15952;SDS011;8075;47.766;8.846;2023-03-22T13:34:57;1.05;;;0.77;;
15952;SDS011;8075;47.766;8.846;2023-03-22T13:37:28;1.10;;;1.00;;
15952;SDS011;8075;47.766;8.846;2023-03-22T13:39:59;0.70;;;0.70;;
15952;SDS011;8075;47.766;8.846;2023-03-22T13:42:36;1.00;;;0.80;;
15952;SDS011;8075;47.766;8.846;2023-03-22T13:45:04;2.22;;;0.80;;
15952;SDS011;8075;47.766;8.846;2023-03-22T13:47:42;1.25;;;0.80;;
15952;SDS011;8075;47.766;8.846;2023-03-22T13:50:18;2.30;;;0.80;;
15952;SDS011;8075;47.766;8.846;2023-03-22T13:52:57;1.27;;;1.00;;
15952;SDS011;8075;47.766;8.846;2023-03-22T13:58:00;1.23;;;0.90;;
15952;SDS011;8075;47.766;8.846;2023-03-22T14:02:56;2.17;;;0.70;;
15952;SDS011;8075;47.766;8.846;2023-03-22T14:05:27;0.90;;;0.80;;
15952;SDS011;8075;47.766;8.846;2023-03-22T14:07:55;1.17;;;0.80;;
15952;SDS011;8075;47.766;8.846;2023-03-22T14:12:59;1.65;;;0.80;;
15952;SDS011;8075;47.766;8.846;2023-03-22T14:15:28;2.20;;;0.70;;
15952;SDS011;8075;47.766;8.846;2023-03-22T14:17:55;1.05;;;0.70;;
15952;SDS011;8075;47.766;8.846;2023-03-22T14:20:24;1.02;;;0.70;;
15952;SDS011;8075;47.766;8.846;2023-03-22T14:22:56;1.15;;;0.70;;
15952;SDS011;8075;47.766;8.846;2023-03-22T14:25:27;2.33;;;0.80;;
15952;SDS011;8075;47.766;8.846;2023-03-22T14:27:55;1.75;;;0.57;;
15952;SDS011;8075;47.766;8.846;2023-03-22T14:32:55;3.53;;;1.00;;
15952;SDS011;8075;47.766;8.846;2023-03-22T14:35:36;3.75;;;0.70;;
15952;SDS011;8075;47.766;8.846;2023-03-22T14:38:04;12.40;;;1.40;;
15952;SDS011;8075;47.766;8.846;2023-03-22T14:40:32;4.90;;;0.90;;
15952;SDS011;8075;47.766;8.846;2023-03-22T14:43:20;3.80;;;0.73;;
15952;SDS011;8075;47.766;8.846;2023-03-22T14:45:46;4.28;;;0.75;;
15952;SDS011;8075;47.766;8.846;2023-03-22T14:48:34;4.25;;;0.70;;
15952;SDS011;8075;47.766;8.846;2023-03-22T14:51:02;7.83;;;1.10;;
15952;SDS011;8075;47.766;8.846;2023-03-22T14:53:34;7.03;;;0.88;;
15952;SDS011;8075;47.766;8.846;2023-03-22T14:56:04;1.40;;;0.68;;
15952;SDS011;8075;47.766;8.846;2023-03-22T14:58:32;16.30;;;1.10;;
15952;SDS011;8075;47.766;8.846;2023-03-22T15:00:59;0.93;;;0.80;;
15952;SDS011;8075;47.766;8.846;2023-03-22T15:03:27;1.08;;;0.80;;
15952;SDS011;8075;47.766;8.846;2023-03-22T15:05:56;1.90;;;0.77;;
15952;SDS011;8075;47.766;8.846;2023-03-22T15:08:23;1.75;;;0.80;;
15952;SDS011;8075;47.766;8.846;2023-03-22T15:10:54;2.10;;;0.80;;
15952;SDS011;8075;47.766;8.846;2023-03-22T15:13:21;1.48;;;0.77;;
15952;SDS011;8075;47.766;8.846;2023-03-22T15:15:47;1.05;;;0.70;;
15952;SDS011;8075;47.766;8.846;2023-03-22T15:18:18;0.93;;;0.70;;
15952;SDS011;8075;47.766;8.846;2023-03-22T15:20:45;1.27;;;0.70;;
15952;SDS011;8075;47.766;8.846;2023-03-22T15:23:19;0.90;;;0.80;;
15952;SDS011;8075;47.766;8.846;2023-03-22T15:25:48;1.27;;;0.70;;
15952;SDS011;8075;47.766;8.846;2023-03-22T15:28:22;0.87;;;0.67;;
15952;SDS011;8075;47.766;8.846;2023-03-22T15:30:49;1.50;;;1.00;;
15952;SDS011;8075;47.766;8.846;2023-03-22T15:33:20;1.80;;;0.80;;
15952;SDS011;8075;47.766;8.846;2023-03-22T15:35:47;1.50;;;0.70;;
15952;SDS011;8075;47.766;8.846;2023-03-22T15:38:13;1.00;;;0.80;;
15952;SDS011;8075;47.766;8.846;2023-03-22T15:40:41;1.00;;;0.60;;
15952;SDS011;8075;47.766;8.846;2023-03-22T15:43:19;1.00;;;0.80;;
15952;SDS011;8075;47.766;8.846;2023-03-22T15:48:39;3.00;;;0.80;;
15952;SDS011;8075;47.766;8.846;2023-03-22T15:51:05;0.70;;;0.60;;
15952;SDS011;8075;47.766;8.846;2023-03-22T15:53:31;0.60;;;0.60;;
15952;SDS011;8075;47.766;8.846;2023-03-22T15:55:59;1.15;;;0.70;;
15952;SDS011;8075;47.766;8.846;2023-03-22T15:58:27;0.82;;;0.80;;
15952;SDS011;8075;47.766;8.846;2023-03-22T16:01:12;1.20;;;0.90;;
15952;SDS011;8075;47.766;8.846;2023-03-22T16:03:40;1.30;;;0.70;;
15952;SDS011;8075;47.766;8.846;2023-03-22T16:06:11;0.77;;;0.77;;
15952;SDS011;8075;47.766;8.846;2023-03-22T16:08:37;2.30;;;0.85;;
15952;SDS011;8075;47.766;8.846;2023-03-22T16:11:03;1.10;;;0.90;;
15952;SDS011;8075;47.766;8.846;2023-03-22T16:13:30;1.00;;;0.82;;
15952;SDS011;8075;47.766;8.846;2023-03-22T16:15:56;2.70;;;0.70;;
15952;SDS011;8075;47.766;8.846;2023-03-22T16:18:24;1.02;;;0.90;;
15952;SDS011;8075;47.766;8.846;2023-03-22T16:20:50;2.10;;;1.08;;